KGSH/GSH METAR and TAF weather

Enter ICAO airport designator
Station Type Date Time Source
KGSH METAR 2023/01/29 19:11 UTC NOAA

KGSH 291911Z AUTO 36008KT 10SM OVC015 M01/M04 A3014 RMK AO2 T10111044


Station Type Date Time Source
KGSH Decoded METAR 2023/01/29 19:11 UTC NOAA

GOSHEN MUNICIPAL AIRPORT, IN, United States (KGSH) 41-32N 85-47W 252M
Jan 29, 2023 - 02:11 PM EST / 2023.01.29 1911 UTC
Wind: from the N (360 degrees) at 9 MPH (8 KT):0
Visibility: 10 mile(s):0
Sky conditions: overcast
Temperature: 30.0 F (-1.1 C)
Windchill: 21 F (-6 C):1
Dew Point: 24.1 F (-4.4 C)
Relative Humidity: 78%
Pressure (altimeter): 30.14 in. Hg (1020 hPa)
ob: KGSH 291911Z AUTO 36008KT 10SM OVC015 M01/M04 A3014 RMK AO2 T10111044
cycle: 19

Station Type Date Time Source
KGSH TAF UTC NOAA

Error!

Example: see airport list